Surf Pines, OR

2:01 AM PST on January 22, 2017 (GMT -0800)
KWACATHL3 | | Change Station
Active Advisory: Gale Warning

Elev 20 ft 46.17 °N, 123.39 °W | Updated 1 minute ago

Mostly Cloudy
Mostly Cloudy
41.2 °F
Feels Like 36 °F
N
9.0
Wind Variable Wind from SSE
Gusts 9.0 mph

Today
High -- | Low -- °F
--% Chance of Precip.
Yesterday
High -- | Low -- °F
Precip. -- in
Pressure 29.40 in
Visibility 10.0 miles
Clouds Clear
Windchill 36 °F
Dew Point 39.6 °F
Humidity 94%
Rainfall 0.00 in
Snow Depth Not available.
7:48 AM 5:07 PM
Waning Crescent, 27% visible
METAR KAST 220955Z AUTO 10009KT 10SM CLR 07/03 A2940 RMK AO2 SLP956 T00720033
Pressure 29.40 in
Visibility 10.0 miles
Clouds Clear
Windchill 36 °F
Dew Point 39.6 °F
Humidity 94%
Rainfall 0.00 in
Snow Depth Not available.
7:48 AM 5:07 PM
Waning Crescent, 27% visible
METAR KAST 220955Z AUTO 10009KT 10SM CLR 07/03 A2940 RMK AO2 SLP956 T00720033

Get Your Daily Forecast Email!

Thanks for signing up!

Be on the lookout for a verification email in your inbox.

You'll start receiving the daily forecast at 8 AM.

×

10-Day Weather Forecast

Almanac

Astronomy

Jan. 22, 2017 Rise Set
Actual Time
Civil Twilight
Nautical Twilight
Astronomical Twilight
Moon
Length of Visible Light
Length of Day
Tomorrow will be .
, % of the Moon is Illuminated

Today's Extremes

State Highs State Lows

Community

WunderPhotos

Upload Photos

1,962,540 photos uploaded!

WunderBlog® & News

Nearby

Air Quality

  Air Quality AQ Index Pollutant
Not available.

Snow Depth

Station Depth Elevation

Earthquake Activity

City Distance Mag. Time & Date
Minimum magnitude displayed is 2.5.

Coastal Water Temperatures

Place Temperature

Stations

Nearby Weather Stations

Station Location Temp. Windchill Dew Point Humidity Wind Precip. Elev Updated Type
                   

Watches & Warnings

Gale Warning
Issued: 8:44 PM PST Jan. 21, 2017 – National Weather Service

... Small Craft Advisory for winds remains in effect until
midnight PST tonight...
... Small Craft Advisory for hazardous seas remains in effect
until midnight PST tonight...
... Gale Warning remains in effect from midnight tonight to 10 PM
PST Sunday...

* winds... south 15 to 20 kt with gusts to 25 kt. Wind becomes
southeast and increases to 25 to 30 kt with gusts to 40 kt
late Saturday night through Sunday.

* Seas... 15 to 19 feet with dominant period around 13 seconds.

Precautionary/preparedness actions...

A Gale Warning means winds of 34 to 47 knots are imminent or
occurring. Operating a vessel in gale conditions requires
experience and properly equipped vessels. It is highly
recommended that mariners without the proper experience seek safe
Harbor prior to the onset of gale conditions.